createdAt,value
2019-04-06T00:01:41.849Z,38.00
2019-04-06T00:04:10.986Z,30.17
2019-04-06T00:06:40.075Z,25.73
2019-04-06T00:09:09.246Z,35.00
2019-04-06T00:11:38.458Z,30.67
2019-04-06T00:14:07.526Z,26.67
2019-04-06T00:16:36.652Z,34.63
2019-04-06T00:19:05.967Z,25.37
2019-04-06T00:21:35.226Z,28.57
2019-04-06T00:24:04.498Z,37.83
2019-04-06T00:26:34.008Z,36.73
2019-04-06T00:29:03.058Z,23.57
2019-04-06T00:31:49.537Z,27.77
2019-04-06T00:34:18.647Z,37.00
2019-04-06T00:36:47.850Z,27.63
2019-04-06T00:39:16.863Z,36.03
2019-04-06T00:41:45.962Z,39.97
2019-04-06T00:44:16.841Z,34.70
2019-04-06T00:46:46.093Z,28.97
2019-04-06T00:49:15.274Z,30.20
2019-04-06T00:51:44.778Z,30.80
2019-04-06T00:54:14.049Z,30.77
2019-04-06T00:56:43.315Z,36.93
2019-04-06T00:59:12.348Z,30.83
2019-04-06T01:01:41.480Z,28.90
2019-04-06T01:04:10.571Z,27.23
2019-04-06T01:06:39.539Z,30.93
2019-04-06T01:09:10.259Z,25.80
2019-04-06T01:11:39.545Z,29.67
2019-04-06T01:14:08.889Z,28.13
2019-04-06T01:16:38.030Z,26.53
2019-04-06T01:19:07.440Z,28.87
2019-04-06T01:21:36.702Z,30.63
2019-04-06T01:24:06.020Z,25.77
2019-04-06T01:26:35.240Z,30.37
2019-04-06T01:29:04.551Z,28.40
2019-04-06T01:31:33.747Z,22.00
2019-04-06T01:34:02.928Z,21.63
2019-04-06T01:36:32.292Z,20.50
2019-04-06T01:39:01.588Z,19.07
2019-04-06T01:41:30.855Z,22.33
2019-04-06T01:43:59.931Z,26.83
2019-04-06T01:46:29.141Z,24.00
2019-04-06T01:48:58.442Z,21.73
2019-04-06T01:51:27.526Z,28.00
2019-04-06T01:53:56.630Z,20.97
2019-04-06T01:56:25.872Z,28.60
2019-04-06T01:58:54.933Z,27.60
2019-04-06T02:02:01.727Z,34.53
2019-04-06T02:04:30.977Z,25.13
2019-04-06T02:07:00.211Z,29.70
2019-04-06T02:09:29.355Z,29.67
2019-04-06T02:11:58.603Z,31.20
2019-04-06T02:14:28.202Z,27.70
2019-04-06T02:16:57.350Z,30.27
2019-04-06T02:19:26.438Z,27.37
2019-04-06T02:21:55.713Z,27.63
2019-04-06T02:24:25.160Z,27.70
2019-04-06T02:26:54.543Z,29.90
2019-04-06T02:29:23.689Z,29.47
2019-04-06T02:32:10.674Z,28.57
2019-04-06T02:34:57.709Z,29.87
2019-04-06T02:37:49.205Z,35.43
2019-04-06T02:40:39.155Z,36.00
2019-04-06T02:43:15.255Z,35.77
2019-04-06T02:45:44.476Z,37.27
2019-04-06T02:48:13.542Z,35.27
2019-04-06T02:50:42.885Z,38.87
2019-04-06T02:53:12.080Z,46.00
2019-04-06T02:55:41.364Z,38.40
2019-04-06T02:58:10.558Z,42.87
2019-04-06T03:00:39.743Z,47.20
2019-04-06T03:03:09.104Z,58.63
2019-04-06T03:05:38.445Z,54.23
2019-04-06T03:08:07.877Z,46.80
2019-04-06T03:10:36.929Z,47.73
2019-04-06T03:13:06.283Z,52.67
2019-04-06T03:15:35.630Z,49.60
2019-04-06T03:18:04.830Z,47.10
2019-04-06T03:20:34.069Z,49.70
2019-04-06T03:23:03.414Z,52.47
2019-04-06T03:25:32.604Z,42.60
2019-04-06T03:28:01.653Z,41.90
2019-04-06T03:30:31.263Z,47.80
2019-04-06T03:33:00.994Z,44.17
2019-04-06T03:35:30.963Z,42.93
2019-04-06T03:38:00.362Z,36.87
2019-04-06T03:40:29.587Z,46.53
2019-04-06T03:42:58.707Z,40.43
2019-04-06T03:45:27.987Z,41.43
2019-04-06T03:47:57.683Z,50.43
2019-04-06T03:50:26.859Z,55.40
2019-04-06T03:52:55.935Z,49.17
2019-04-06T03:55:24.910Z,42.83
2019-04-06T03:57:54.531Z,46.07
2019-04-06T04:00:23.791Z,50.57
2019-04-06T04:02:53.378Z,45.50
2019-04-06T04:05:22.930Z,46.00
2019-04-06T04:07:52.495Z,42.17
2019-04-06T04:10:36.259Z,42.23
2019-04-06T04:13:05.874Z,41.53
2019-04-06T04:15:35.126Z,52.93
2019-04-06T04:18:04.735Z,52.47
2019-04-06T04:20:34.079Z,41.50
2019-04-06T04:23:03.186Z,43.37
2019-04-06T04:25:32.682Z,52.37
2019-04-06T04:28:02.087Z,49.07
2019-04-06T04:30:33.915Z,37.77
2019-04-06T04:33:01.956Z,42.33
2019-04-06T04:35:31.545Z,48.40
2019-04-06T04:38:00.733Z,36.07
2019-04-06T04:40:30.067Z,36.77
2019-04-06T04:42:59.368Z,46.00
2019-04-06T04:45:28.499Z,38.53
2019-04-06T04:47:58.124Z,39.33
2019-04-06T04:50:27.379Z,47.37
2019-04-06T04:52:57.394Z,39.53
2019-04-06T04:55:26.577Z,48.33
2019-04-06T04:57:55.771Z,38.00
2019-04-06T05:00:25.111Z,41.40
2019-04-06T05:02:55.249Z,40.93
2019-04-06T05:05:24.399Z,43.77
2019-04-06T05:07:53.807Z,37.23
2019-04-06T05:10:23.565Z,43.80
2019-04-06T05:12:52.653Z,38.93
2019-04-06T05:15:30.799Z,38.60
2019-04-06T05:17:59.940Z,35.90
2019-04-06T05:20:29.141Z,41.07
2019-04-06T05:22:58.288Z,42.20
2019-04-06T05:25:27.565Z,41.63
2019-04-06T05:27:57.004Z,38.50
2019-04-06T05:30:26.151Z,44.10
2019-04-06T05:32:55.260Z,40.97
2019-04-06T05:35:24.458Z,43.10
2019-04-06T05:37:53.588Z,36.60
2019-04-06T05:40:23.052Z,39.03
2019-04-06T05:42:52.350Z,35.80
2019-04-06T05:45:21.554Z,37.27
2019-04-06T05:47:50.942Z,39.40
2019-04-06T05:50:20.837Z,37.20
2019-04-06T05:52:50.432Z,34.53
2019-04-06T05:55:19.572Z,39.27
2019-04-06T05:57:48.708Z,45.27
2019-04-06T06:00:17.887Z,40.20
2019-04-06T06:02:46.879Z,41.60
2019-04-06T06:05:16.083Z,43.80
2019-04-06T06:07:45.286Z,40.07
2019-04-06T06:10:14.372Z,57.53
2019-04-06T06:12:43.549Z,60.10
2019-04-06T06:15:13.085Z,45.67
2019-04-06T06:17:42.258Z,55.20
2019-04-06T06:20:11.578Z,63.33
2019-04-06T06:22:40.815Z,54.80
2019-04-06T06:25:10.181Z,60.43
2019-04-06T06:27:39.323Z,48.83
2019-04-06T06:30:09.157Z,46.80
2019-04-06T06:32:38.415Z,56.37
2019-04-06T06:35:07.771Z,56.60
2019-04-06T06:37:37.194Z,53.20
2019-04-06T06:40:06.778Z,54.57
2019-04-06T06:42:36.071Z,57.80
2019-04-06T06:45:05.736Z,46.07
2019-04-06T06:47:34.951Z,48.53
2019-04-06T06:50:04.522Z,43.83
2019-04-06T06:52:33.619Z,41.93
2019-04-06T06:55:04.836Z,45.93
2019-04-06T06:57:34.145Z,39.70
2019-04-06T07:00:03.712Z,47.37
2019-04-06T07:02:32.959Z,39.53
2019-04-06T07:05:03.557Z,44.00
2019-04-06T07:07:32.994Z,50.27
2019-04-06T07:10:05.686Z,52.53
2019-04-06T07:12:32.996Z,53.20
2019-04-06T07:15:02.271Z,48.30
2019-04-06T07:17:31.396Z,51.60
2019-04-06T07:20:00.799Z,47.73
2019-04-06T07:22:31.827Z,47.63
2019-04-06T07:25:20.275Z,55.17
2019-04-06T07:27:49.395Z,51.53
2019-04-06T07:30:18.811Z,50.00
2019-04-06T07:32:47.976Z,48.17
2019-04-06T07:35:17.123Z,46.87
2019-04-06T07:37:46.568Z,48.07
2019-04-06T07:40:19.094Z,48.30
2019-04-06T07:42:48.139Z,46.13
2019-04-06T07:45:17.406Z,40.50
2019-04-06T07:47:46.803Z,46.53
2019-04-06T07:50:19.392Z,46.90
2019-04-06T07:52:48.616Z,53.00
2019-04-06T07:55:17.874Z,48.63
2019-04-06T07:57:46.974Z,43.87
2019-04-06T08:00:16.486Z,49.40
2019-04-06T08:02:45.665Z,43.20
2019-04-06T08:05:15.114Z,45.97
2019-04-06T08:07:44.383Z,45.20
2019-04-06T08:10:15.323Z,46.00
2019-04-06T08:12:44.391Z,45.40
2019-04-06T08:15:13.608Z,43.00
2019-04-06T08:17:44.520Z,49.40
2019-04-06T08:20:13.898Z,54.43
2019-04-06T08:22:43.500Z,40.47
2019-04-06T08:25:32.531Z,36.37
2019-04-06T08:28:02.319Z,53.47
2019-04-06T08:30:31.937Z,50.30
2019-04-06T08:33:01.550Z,50.33
2019-04-06T08:35:30.890Z,50.60
2019-04-06T08:38:02.254Z,47.10
2019-04-06T08:40:34.341Z,57.00
2019-04-06T08:43:03.594Z,56.17
2019-04-06T08:45:32.997Z,44.47
2019-04-06T08:48:03.150Z,53.27
2019-04-06T08:50:40.247Z,52.47
2019-04-06T08:53:09.458Z,51.03
2019-04-06T08:55:39.052Z,49.90
2019-04-06T08:58:08.380Z,49.90
2019-04-06T09:00:38.035Z,50.13
2019-04-06T09:03:07.474Z,48.87
2019-04-06T09:05:40.200Z,49.20
2019-04-06T09:08:09.370Z,54.83
2019-04-06T09:10:57.728Z,53.93
2019-04-06T09:13:26.898Z,52.77
2019-04-06T09:15:56.114Z,47.03
2019-04-06T09:18:25.286Z,51.97
2019-04-06T09:20:56.151Z,50.13
2019-04-06T09:23:27.740Z,54.40
2019-04-06T09:25:57.410Z,50.13
2019-04-06T09:28:26.688Z,56.37
2019-04-06T09:30:55.819Z,51.93
2019-04-06T09:33:25.160Z,49.50
2019-04-06T09:35:54.795Z,53.60
2019-04-06T09:38:24.269Z,48.67
2019-04-06T09:40:53.988Z,61.63
2019-04-06T09:43:24.480Z,48.63
2019-04-06T09:46:18.187Z,51.97
2019-04-06T09:49:02.677Z,56.07
2019-04-06T09:51:51.487Z,45.73
2019-04-06T09:54:39.932Z,52.97
2019-04-06T09:57:43.701Z,52.30
2019-04-06T10:00:31.142Z,54.80
2019-04-06T10:03:19.116Z,50.00
2019-04-06T10:05:59.255Z,48.40
2019-04-06T10:08:38.688Z,53.47
2019-04-06T10:11:35.817Z,51.93
2019-04-06T10:14:18.321Z,53.70
2019-04-06T10:17:12.845Z,54.60
2019-04-06T10:19:57.403Z,49.20
2019-04-06T10:22:42.082Z,53.43
2019-04-06T10:25:23.848Z,57.40
2019-04-06T10:28:12.228Z,52.83
2019-04-06T10:31:00.563Z,55.53
2019-04-06T10:33:41.785Z,55.13
2019-04-06T10:36:23.848Z,54.10
2019-04-06T10:39:08.245Z,51.47
2019-04-06T10:42:02.227Z,55.67
2019-04-06T10:47:53.752Z,52.07
2019-04-06T10:50:40.989Z,49.27
2019-04-06T10:53:32.718Z,48.93
2019-04-06T10:56:16.315Z,49.03
2019-04-06T10:59:13.275Z,49.50
2019-04-06T11:02:00.373Z,50.33
2019-04-06T11:04:33.994Z,50.17
2019-04-06T11:07:24.327Z,50.00
2019-04-06T11:10:27.973Z,47.63
2019-04-06T11:13:25.022Z,53.47
2019-04-06T11:16:07.839Z,46.70
2019-04-06T11:18:57.264Z,49.50
2019-04-06T11:21:57.695Z,50.17
2019-04-06T11:24:52.064Z,50.57
2019-04-06T11:27:37.280Z,43.50
2019-04-06T11:30:29.083Z,52.30
2019-04-06T11:33:26.761Z,43.47
2019-04-06T11:36:04.396Z,46.67
2019-04-06T11:38:54.022Z,48.13
2019-04-06T11:41:48.096Z,47.33
2019-04-06T11:44:36.711Z,48.50
2019-04-06T11:47:20.860Z,48.93
2019-04-06T11:50:09.073Z,46.57
2019-04-06T11:52:57.205Z,44.50
2019-04-06T11:55:49.480Z,47.00
2019-04-06T11:58:29.312Z,49.37
2019-04-06T12:01:13.920Z,48.67
2019-04-06T12:04:12.681Z,45.57
2019-04-06T12:07:03.698Z,42.87
2019-04-06T12:09:44.654Z,44.17
2019-04-06T12:12:31.634Z,42.57
2019-04-06T12:15:09.826Z,37.10
2019-04-06T12:17:57.163Z,39.90
2019-04-06T12:20:34.174Z,39.37
2019-04-06T12:23:25.217Z,46.40
2019-04-06T12:26:09.454Z,40.50
2019-04-06T12:29:15.789Z,37.67
2019-04-06T12:31:53.123Z,37.43
2019-04-06T12:35:00.720Z,39.63
2019-04-06T12:37:58.391Z,32.73
2019-04-06T12:40:47.154Z,27.90
2019-04-06T12:43:37.521Z,23.60
2019-04-06T12:46:41.021Z,26.00
2019-04-06T12:49:47.258Z,24.77
2019-04-06T12:52:53.877Z,27.37
2019-04-06T12:55:32.282Z,27.40
2019-04-06T12:58:32.522Z,23.27
2019-04-06T13:01:29.279Z,22.90
2019-04-06T13:04:17.346Z,20.07
2019-04-06T13:07:05.663Z,18.97
2019-04-06T13:09:44.525Z,16.57
2019-04-06T13:12:34.539Z,21.50
2019-04-06T13:15:12.479Z,18.93
2019-04-06T13:17:53.903Z,20.97
2019-04-06T13:20:40.785Z,18.07
2019-04-06T13:23:33.895Z,20.83
2019-04-06T13:26:12.921Z,18.80
2019-04-06T13:28:56.853Z,17.10
2019-04-06T13:31:33.650Z,19.27
2019-04-06T13:34:17.780Z,16.80
2019-04-06T13:37:03.951Z,19.03
2019-04-06T13:39:55.031Z,16.10
2019-04-06T13:42:41.726Z,16.37
2019-04-06T13:45:32.711Z,19.37
2019-04-06T13:48:20.119Z,15.80
2019-04-06T13:51:05.387Z,17.97
2019-04-06T13:53:56.391Z,17.73
2019-04-06T13:56:47.679Z,17.23
2019-04-06T13:59:45.140Z,16.70
2019-04-06T14:02:31.583Z,18.17
2019-04-06T14:05:20.067Z,15.50
2019-04-06T14:08:14.393Z,15.10
2019-04-06T14:10:56.777Z,18.30
2019-04-06T14:13:43.110Z,13.60
2019-04-06T14:16:31.555Z,16.47
2019-04-06T14:19:12.834Z,16.73
2019-04-06T14:22:11.011Z,17.73
2019-04-06T14:25:03.742Z,17.07
2019-04-06T14:27:44.588Z,17.50
2019-04-06T14:30:32.995Z,18.50
2019-04-06T14:33:11.005Z,18.10
2019-04-06T14:36:09.632Z,18.47
2019-04-06T14:39:01.060Z,13.23
2019-04-06T14:41:58.729Z,13.53
2019-04-06T14:44:54.039Z,17.03
2019-04-06T14:47:48.195Z,19.07
2019-04-06T14:50:43.891Z,16.83
2019-04-06T14:53:30.751Z,14.63
2019-04-06T14:56:06.601Z,15.60
2019-04-06T14:58:47.294Z,20.70
2019-04-06T15:01:51.998Z,16.47
2019-04-06T15:04:40.330Z,17.67
2019-04-06T15:07:34.740Z,18.07
2019-04-06T15:10:16.290Z,17.63
2019-04-06T15:13:16.702Z,14.73
2019-04-06T15:16:05.310Z,14.87
2019-04-06T15:18:49.507Z,18.27
2019-04-06T15:21:41.230Z,17.57
2019-04-06T15:24:28.099Z,17.33
2019-04-06T15:27:25.391Z,13.40
2019-04-06T15:30:19.577Z,21.30
2019-04-06T15:33:05.696Z,16.93
2019-04-06T15:35:52.766Z,20.93
2019-04-06T15:38:34.078Z,15.93
2019-04-06T15:41:21.290Z,19.97
2019-04-06T15:44:08.551Z,19.50
2019-04-06T15:46:45.047Z,19.43
2019-04-06T15:49:25.181Z,20.83
2019-04-06T15:52:22.599Z,22.27
2019-04-06T15:55:10.791Z,21.27
2019-04-06T15:57:56.721Z,21.27
2019-04-06T16:00:43.946Z,19.73
2019-04-06T16:03:25.473Z,20.27
2019-04-06T16:06:09.969Z,21.63
2019-04-06T16:08:57.045Z,22.17
2019-04-06T16:11:45.204Z,18.43
2019-04-06T16:14:22.745Z,19.47
2019-04-06T16:16:59.232Z,21.70
2019-04-06T16:19:48.229Z,18.77
2019-04-06T16:22:36.387Z,15.60
2019-04-06T16:25:24.869Z,14.73
2019-04-06T16:28:11.188Z,24.00
2019-04-06T16:30:59.885Z,16.87
2019-04-06T16:33:47.239Z,20.53
2019-04-06T16:36:25.348Z,18.27
2019-04-06T16:39:15.695Z,14.97
2019-04-06T16:42:13.221Z,16.67
2019-04-06T16:45:01.599Z,15.47
2019-04-06T16:47:41.587Z,17.30
2019-04-06T16:50:40.986Z,22.60
2019-04-06T16:53:29.463Z,21.33
2019-04-06T16:56:24.804Z,19.47
2019-04-06T16:59:24.993Z,21.73
2019-04-06T17:02:24.711Z,14.10
2019-04-06T17:05:08.234Z,12.37
2019-04-06T17:07:48.900Z,16.30
2019-04-06T17:10:39.925Z,12.50
2019-04-06T17:13:18.267Z,14.73
2019-04-06T17:19:12.359Z,15.03
2019-04-06T17:21:50.006Z,12.20
2019-04-06T17:24:32.690Z,11.37
2019-04-06T17:27:32.906Z,13.10
2019-04-06T17:30:20.162Z,12.17
2019-04-06T17:33:06.300Z,11.63
2019-04-06T17:36:00.900Z,13.10
2019-04-06T17:39:04.407Z,15.40
2019-04-06T17:41:40.716Z,13.33
2019-04-06T17:44:34.176Z,11.97
2019-04-06T17:47:25.591Z,12.90
2019-04-06T17:50:04.155Z,8.87
2019-04-06T17:52:38.477Z,9.97
2019-04-06T17:55:25.836Z,8.17
2019-04-06T17:58:13.062Z,7.00
2019-04-06T18:01:00.469Z,6.87
2019-04-06T18:03:59.695Z,7.20
2019-04-06T18:06:48.107Z,7.13
2019-04-06T18:09:36.702Z,9.43
2019-04-06T18:12:31.743Z,7.90
2019-04-06T18:15:00.974Z,7.90
2019-04-06T18:17:30.185Z,7.83
2019-04-06T18:19:59.545Z,8.27
2019-04-06T18:22:28.725Z,14.57
2019-04-06T18:24:57.976Z,9.27
2019-04-06T18:27:27.460Z,12.40
2019-04-06T18:29:56.740Z,15.57
2019-04-06T18:32:38.384Z,7.90
2019-04-06T18:35:09.958Z,11.83
2019-04-06T18:37:51.351Z,11.53
2019-04-06T18:40:25.911Z,12.95
2019-04-06T18:42:55.159Z,11.63
2019-04-06T18:45:25.723Z,11.90
2019-04-06T18:47:55.758Z,12.70
2019-04-06T18:50:34.252Z,13.10
2019-04-06T18:52:56.621Z,14.43
2019-04-06T18:55:27.128Z,15.10
2019-04-06T18:58:08.260Z,13.70
2019-04-06T19:00:27.458Z,13.47
2019-04-06T19:03:12.076Z,15.03
2019-04-06T19:05:33.911Z,17.60
2019-04-06T19:08:05.214Z,15.90
2019-04-06T19:10:34.887Z,15.63
2019-04-06T19:13:05.380Z,17.50
2019-04-06T19:15:35.004Z,17.00
2019-04-06T19:18:04.367Z,17.10
2019-04-06T19:20:34.048Z,17.53
2019-04-06T19:23:03.867Z,21.90
2019-04-06T19:25:33.091Z,20.73
2019-04-06T19:28:05.699Z,19.60
2019-04-06T19:30:35.163Z,19.97
2019-04-06T19:33:04.580Z,17.73
2019-04-06T19:35:39.686Z,16.90
2019-04-06T19:38:11.887Z,22.98
2019-04-06T19:40:41.539Z,22.58
2019-04-06T19:43:10.816Z,17.80
2019-04-06T19:45:39.975Z,17.70
2019-04-06T19:48:09.684Z,18.47
2019-04-06T19:50:39.271Z,18.40
2019-04-06T19:53:08.836Z,19.87
2019-04-06T19:55:38.432Z,18.20
2019-04-06T19:58:13.670Z,18.43
2019-04-06T20:00:42.987Z,18.70
2019-04-06T20:03:12.408Z,19.77
2019-04-06T20:05:41.706Z,21.60
2019-04-06T20:08:11.472Z,26.43
2019-04-06T20:10:41.154Z,24.03
2019-04-06T20:13:14.575Z,17.90
2019-04-06T20:15:44.268Z,23.23
2019-04-06T20:18:16.116Z,29.03
2019-04-06T20:20:45.641Z,20.67
2019-04-06T20:23:14.950Z,19.73
2019-04-06T20:25:44.261Z,29.73
2019-04-06T20:28:14.599Z,24.60
2019-04-06T20:30:44.141Z,22.93
2019-04-06T20:33:13.938Z,23.00
2019-04-06T20:35:44.378Z,18.73
2019-04-06T20:38:19.558Z,22.70
2019-04-06T20:40:49.369Z,18.80
2019-04-06T20:43:18.707Z,19.97
2019-04-06T20:45:47.924Z,17.77
2019-04-06T20:48:17.002Z,17.77
2019-04-06T20:50:46.259Z,19.47
2019-04-06T20:53:15.746Z,20.00
2019-04-06T20:55:45.223Z,21.97
2019-04-06T20:58:15.773Z,20.33
2019-04-06T21:00:45.002Z,21.07
2019-04-06T21:03:15.129Z,21.60
2019-04-06T21:05:44.527Z,26.73
2019-04-06T21:08:14.397Z,20.07
2019-04-06T21:10:45.914Z,18.13
2019-04-06T21:13:15.558Z,22.47
2019-04-06T21:15:45.093Z,21.47
2019-04-06T21:18:14.646Z,19.23
2019-04-06T21:20:44.069Z,21.07
2019-04-06T21:23:13.878Z,17.87
2019-04-06T21:25:43.717Z,16.43
2019-04-06T21:28:13.247Z,18.80
2019-04-06T21:30:43.061Z,15.67
2019-04-06T21:33:14.622Z,15.90
2019-04-06T21:35:44.646Z,14.53
2019-04-06T21:38:13.923Z,16.27
2019-04-06T21:40:43.373Z,17.53
2019-04-06T21:43:12.708Z,16.00
2019-04-06T21:45:42.391Z,16.43
2019-04-06T21:48:12.150Z,14.63
2019-04-06T21:50:41.300Z,16.10
2019-04-06T21:53:10.642Z,18.73
2019-04-06T21:55:40.027Z,18.97
2019-04-06T21:58:09.755Z,17.77
2019-04-06T22:01:10.267Z,17.37
2019-04-06T22:03:39.676Z,18.57
2019-04-06T22:06:09.109Z,19.03
2019-04-06T22:08:38.503Z,15.57
2019-04-06T22:11:08.851Z,16.40
2019-04-06T22:13:38.222Z,15.13
2019-04-06T22:16:08.689Z,13.70
2019-04-06T22:18:38.016Z,13.50
2019-04-06T22:21:07.222Z,14.43
2019-04-06T22:23:42.349Z,13.13
2019-04-06T22:26:08.076Z,15.23
2019-04-06T22:28:37.607Z,13.47
2019-04-06T22:31:07.176Z,15.50
2019-04-06T22:33:36.483Z,19.17
2019-04-06T22:36:05.663Z,17.47
2019-04-06T22:38:34.882Z,15.23
2019-04-06T22:41:03.977Z,15.90
2019-04-06T22:43:36.372Z,16.87
2019-04-06T22:46:05.624Z,17.13
2019-04-06T22:48:34.876Z,21.23
2019-04-06T22:51:04.565Z,16.50
2019-04-06T22:53:33.980Z,15.70
2019-04-06T22:56:03.425Z,21.00
2019-04-06T22:58:32.688Z,19.93
2019-04-06T23:01:07.068Z,16.27
2019-04-06T23:04:01.671Z,17.80
2019-04-06T23:06:35.423Z,17.47
2019-04-06T23:09:06.978Z,16.43
2019-04-06T23:11:36.654Z,18.27
2019-04-06T23:14:06.422Z,18.23
2019-04-06T23:16:35.770Z,21.47
2019-04-06T23:19:05.119Z,16.70
2019-04-06T23:21:34.240Z,18.00
2019-04-06T23:24:04.749Z,21.60
2019-04-06T23:26:34.465Z,20.03
2019-04-06T23:29:03.802Z,14.67
2019-04-06T23:31:33.462Z,19.90
2019-04-06T23:34:03.382Z,18.07
2019-04-06T23:36:32.983Z,24.50
2019-04-06T23:39:02.417Z,18.70
2019-04-06T23:41:32.257Z,21.80
2019-04-06T23:44:01.569Z,26.67
2019-04-06T23:46:30.921Z,22.40
2019-04-06T23:49:02.284Z,24.13
2019-04-06T23:51:31.414Z,23.53
2019-04-06T23:54:00.860Z,19.57
2019-04-06T23:56:30.138Z,24.13
2019-04-06T23:58:59.476Z,22.23
